sensor_id;sensor_type;location;lat;lon;timestamp;temperature;humidity
19862;DHT22;10093;48.148;8.542;2023-02-28T00:01:12;-3.10;99.90
19862;DHT22;10093;48.148;8.542;2023-02-28T00:03:38;-3.10;99.90
19862;DHT22;10093;48.148;8.542;2023-02-28T00:06:06;-3.20;99.90
19862;DHT22;10093;48.148;8.542;2023-02-28T00:08:32;-3.20;99.90
19862;DHT22;10093;48.148;8.542;2023-02-28T00:11:02;-3.10;99.90
19862;DHT22;10093;48.148;8.542;2023-02-28T00:13:28;-3.10;99.90
19862;DHT22;10093;48.148;8.542;2023-02-28T00:16:01;-3.10;99.90
19862;DHT22;10093;48.148;8.542;2023-02-28T00:18:28;-3.10;99.90
19862;DHT22;10093;48.148;8.542;2023-02-28T00:20:53;-3.10;99.90
19862;DHT22;10093;48.148;8.542;2023-02-28T00:23:19;-3.00;99.90
19862;DHT22;10093;48.148;8.542;2023-02-28T00:25:45;-3.10;99.90
19862;DHT22;10093;48.148;8.542;2023-02-28T00:28:10;-3.10;99.90
19862;DHT22;10093;48.148;8.542;2023-02-28T00:30:36;-3.00;99.90
19862;DHT22;10093;48.148;8.542;2023-02-28T00:33:02;-3.10;99.90
19862;DHT22;10093;48.148;8.542;2023-02-28T00:35:27;-3.10;99.90
19862;DHT22;10093;48.148;8.542;2023-02-28T00:37:53;-3.10;99.90
19862;DHT22;10093;48.148;8.542;2023-02-28T00:40:18;-3.00;99.90
19862;DHT22;10093;48.148;8.542;2023-02-28T00:42:44;-3.10;99.90
19862;DHT22;10093;48.148;8.542;2023-02-28T00:45:10;-3.10;99.90
19862;DHT22;10093;48.148;8.542;2023-02-28T00:47:35;-3.10;99.90
19862;DHT22;10093;48.148;8.542;2023-02-28T00:50:01;-3.00;99.90
19862;DHT22;10093;48.148;8.542;2023-02-28T00:52:27;-2.90;99.90
19862;DHT22;10093;48.148;8.542;2023-02-28T00:54:53;-3.00;99.90
19862;DHT22;10093;48.148;8.542;2023-02-28T00:57:18;-3.00;99.90
19862;DHT22;10093;48.148;8.542;2023-02-28T00:59:44;-3.00;99.90
19862;DHT22;10093;48.148;8.542;2023-02-28T01:02:10;-2.90;99.90
19862;DHT22;10093;48.148;8.542;2023-02-28T01:04:35;-3.00;99.90
19862;DHT22;10093;48.148;8.542;2023-02-28T01:07:01;-3.00;99.90
19862;DHT22;10093;48.148;8.542;2023-02-28T01:09:26;-3.10;99.90
19862;DHT22;10093;48.148;8.542;2023-02-28T01:11:52;-3.10;99.90
19862;DHT22;10093;48.148;8.542;2023-02-28T01:14:18;-2.90;99.90
19862;DHT22;10093;48.148;8.542;2023-02-28T01:16:43;-3.10;99.90
19862;DHT22;10093;48.148;8.542;2023-02-28T01:19:09;-3.20;99.90
19862;DHT22;10093;48.148;8.542;2023-02-28T01:21:35;-3.30;99.90
19862;DHT22;10093;48.148;8.542;2023-02-28T01:24:02;-3.30;99.90
19862;DHT22;10093;48.148;8.542;2023-02-28T01:26:28;-3.30;99.90
19862;DHT22;10093;48.148;8.542;2023-02-28T01:28:54;-3.30;99.90
19862;DHT22;10093;48.148;8.542;2023-02-28T01:31:21;-3.40;99.90
19862;DHT22;10093;48.148;8.542;2023-02-28T01:33:47;-3.30;99.90
19862;DHT22;10093;48.148;8.542;2023-02-28T01:36:23;-3.20;99.90
19862;DHT22;10093;48.148;8.542;2023-02-28T01:38:50;-3.40;99.90
19862;DHT22;10093;48.148;8.542;2023-02-28T01:46:12;-3.40;99.90
19862;DHT22;10093;48.148;8.542;2023-02-28T01:48:58;-3.30;99.90
19862;DHT22;10093;48.148;8.542;2023-02-28T01:51:50;-3.40;99.90
19862;DHT22;10093;48.148;8.542;2023-02-28T01:54:23;-3.40;99.90
19862;DHT22;10093;48.148;8.542;2023-02-28T01:56:54;-3.40;99.90
19862;DHT22;10093;48.148;8.542;2023-02-28T01:59:35;-3.40;99.90
19862;DHT22;10093;48.148;8.542;2023-02-28T02:02:03;-3.50;99.90
19862;DHT22;10093;48.148;8.542;2023-02-28T02:04:36;-3.40;99.90
19862;DHT22;10093;48.148;8.542;2023-02-28T02:07:03;-3.50;99.90
19862;DHT22;10093;48.148;8.542;2023-02-28T02:09:29;-3.40;99.90
19862;DHT22;10093;48.148;8.542;2023-02-28T02:11:55;-3.60;99.90
19862;DHT22;10093;48.148;8.542;2023-02-28T02:14:39;-3.50;99.90
19862;DHT22;10093;48.148;8.542;2023-02-28T02:25:59;-3.70;99.90
19862;DHT22;10093;48.148;8.542;2023-02-28T02:31:50;-3.50;99.90
19862;DHT22;10093;48.148;8.542;2023-02-28T02:37:38;-3.80;99.90
19862;DHT22;10093;48.148;8.542;2023-02-28T02:47:49;-3.70;99.90
19862;DHT22;10093;48.148;8.542;2023-02-28T02:50:21;-3.80;99.90
19862;DHT22;10093;48.148;8.542;2023-02-28T02:52:52;-3.80;99.90
19862;DHT22;10093;48.148;8.542;2023-02-28T02:55:20;-3.90;99.90
19862;DHT22;10093;48.148;8.542;2023-02-28T02:57:59;-3.90;99.90
19862;DHT22;10093;48.148;8.542;2023-02-28T03:00:31;-3.90;99.90
19862;DHT22;10093;48.148;8.542;2023-02-28T03:02:58;-3.80;99.90
19862;DHT22;10093;48.148;8.542;2023-02-28T03:05:27;-3.90;99.90
19862;DHT22;10093;48.148;8.542;2023-02-28T03:07:55;-3.80;99.90
19862;DHT22;10093;48.148;8.542;2023-02-28T03:10:36;-3.90;99.90
19862;DHT22;10093;48.148;8.542;2023-02-28T03:21:27;-4.00;99.90
19862;DHT22;10093;48.148;8.542;2023-02-28T03:24:11;-4.10;99.90
19862;DHT22;10093;48.148;8.542;2023-02-28T03:26:45;-4.10;99.90
19862;DHT22;10093;48.148;8.542;2023-02-28T03:29:28;-4.00;99.90
19862;DHT22;10093;48.148;8.542;2023-02-28T03:32:21;-4.00;99.90
19862;DHT22;10093;48.148;8.542;2023-02-28T03:34:55;-4.00;99.90
19862;DHT22;10093;48.148;8.542;2023-02-28T03:37:23;-4.00;99.90
19862;DHT22;10093;48.148;8.542;2023-02-28T03:39:57;-4.10;99.90
19862;DHT22;10093;48.148;8.542;2023-02-28T03:42:28;-4.00;99.90
19862;DHT22;10093;48.148;8.542;2023-02-28T03:45:04;-4.00;99.90
19862;DHT22;10093;48.148;8.542;2023-02-28T03:50:21;-3.90;99.90
19862;DHT22;10093;48.148;8.542;2023-02-28T03:52:51;-3.90;99.90
19862;DHT22;10093;48.148;8.542;2023-02-28T03:55:18;-3.90;99.90
19862;DHT22;10093;48.148;8.542;2023-02-28T03:58:11;-4.00;99.90
19862;DHT22;10093;48.148;8.542;2023-02-28T04:00:42;-4.10;99.90
19862;DHT22;10093;48.148;8.542;2023-02-28T04:03:09;-4.20;99.90
19862;DHT22;10093;48.148;8.542;2023-02-28T04:05:53;-4.20;99.90
19862;DHT22;10093;48.148;8.542;2023-02-28T04:08:19;-4.10;99.90
19862;DHT22;10093;48.148;8.542;2023-02-28T04:10:50;-4.10;99.90
19862;DHT22;10093;48.148;8.542;2023-02-28T04:13:18;-4.10;99.90
19862;DHT22;10093;48.148;8.542;2023-02-28T04:15:44;-4.10;99.90
19862;DHT22;10093;48.148;8.542;2023-02-28T04:18:09;-4.20;99.90
19862;DHT22;10093;48.148;8.542;2023-02-28T04:20:35;-4.00;99.90
19862;DHT22;10093;48.148;8.542;2023-02-28T04:23:01;-4.10;99.90
19862;DHT22;10093;48.148;8.542;2023-02-28T04:25:27;-4.10;99.90
19862;DHT22;10093;48.148;8.542;2023-02-28T04:27:52;-4.10;99.90
19862;DHT22;10093;48.148;8.542;2023-02-28T04:30:18;-4.20;99.90
19862;DHT22;10093;48.148;8.542;2023-02-28T04:32:43;-4.00;99.90
19862;DHT22;10093;48.148;8.542;2023-02-28T04:35:09;-4.00;99.90
19862;DHT22;10093;48.148;8.542;2023-02-28T04:37:35;-4.20;99.90
19862;DHT22;10093;48.148;8.542;2023-02-28T04:40:02;-4.20;99.90
19862;DHT22;10093;48.148;8.542;2023-02-28T04:42:28;-4.30;99.90
19862;DHT22;10093;48.148;8.542;2023-02-28T04:45:01;-4.30;99.90
19862;DHT22;10093;48.148;8.542;2023-02-28T04:47:27;-4.40;99.90
19862;DHT22;10093;48.148;8.542;2023-02-28T04:49:53;-4.30;99.90
19862;DHT22;10093;48.148;8.542;2023-02-28T04:52:18;-4.40;99.90
19862;DHT22;10093;48.148;8.542;2023-02-28T04:54:44;-4.50;99.90
19862;DHT22;10093;48.148;8.542;2023-02-28T04:57:10;-4.50;99.90
19862;DHT22;10093;48.148;8.542;2023-02-28T04:59:36;-4.50;99.90
19862;DHT22;10093;48.148;8.542;2023-02-28T05:02:01;-4.40;99.90
19862;DHT22;10093;48.148;8.542;2023-02-28T05:04:32;-4.40;99.90
19862;DHT22;10093;48.148;8.542;2023-02-28T05:06:59;-4.60;99.90
19862;DHT22;10093;48.148;8.542;2023-02-28T05:09:25;-4.60;99.90
19862;DHT22;10093;48.148;8.542;2023-02-28T05:11:51;-4.60;99.90
19862;DHT22;10093;48.148;8.542;2023-02-28T05:14:17;-4.40;99.90
19862;DHT22;10093;48.148;8.542;2023-02-28T05:16:42;-4.60;99.90
19862;DHT22;10093;48.148;8.542;2023-02-28T05:19:08;-4.50;99.90
19862;DHT22;10093;48.148;8.542;2023-02-28T05:21:39;-4.60;99.90
19862;DHT22;10093;48.148;8.542;2023-02-28T05:24:11;-4.60;99.90
19862;DHT22;10093;48.148;8.542;2023-02-28T05:26:39;-4.60;99.90
19862;DHT22;10093;48.148;8.542;2023-02-28T05:29:05;-4.40;99.90
19862;DHT22;10093;48.148;8.542;2023-02-28T05:31:31;-4.50;99.90
19862;DHT22;10093;48.148;8.542;2023-02-28T05:33:56;-4.50;99.90
19862;DHT22;10093;48.148;8.542;2023-02-28T05:36:22;-4.40;99.90
19862;DHT22;10093;48.148;8.542;2023-02-28T05:38:49;-4.30;99.90
19862;DHT22;10093;48.148;8.542;2023-02-28T05:41:15;-4.40;99.90
19862;DHT22;10093;48.148;8.542;2023-02-28T05:43:41;-4.50;99.90
19862;DHT22;10093;48.148;8.542;2023-02-28T05:46:08;-4.50;99.90
19862;DHT22;10093;48.148;8.542;2023-02-28T05:48:36;-4.50;99.90
19862;DHT22;10093;48.148;8.542;2023-02-28T05:51:03;-4.50;99.90
19862;DHT22;10093;48.148;8.542;2023-02-28T05:53:29;-4.50;99.90
19862;DHT22;10093;48.148;8.542;2023-02-28T05:55:56;-4.50;99.90
19862;DHT22;10093;48.148;8.542;2023-02-28T05:58:22;-4.50;99.90
19862;DHT22;10093;48.148;8.542;2023-02-28T06:00:48;-4.30;99.90
19862;DHT22;10093;48.148;8.542;2023-02-28T06:03:14;-4.20;99.90
19862;DHT22;10093;48.148;8.542;2023-02-28T06:05:40;-4.20;99.90
19862;DHT22;10093;48.148;8.542;2023-02-28T06:08:06;-4.40;99.90
19862;DHT22;10093;48.148;8.542;2023-02-28T06:10:33;-4.40;99.90
19862;DHT22;10093;48.148;8.542;2023-02-28T06:13:00;-4.30;99.90
19862;DHT22;10093;48.148;8.542;2023-02-28T06:15:27;-4.30;99.90
19862;DHT22;10093;48.148;8.542;2023-02-28T06:17:53;-4.20;99.90
19862;DHT22;10093;48.148;8.542;2023-02-28T06:20:21;-4.30;99.90
19862;DHT22;10093;48.148;8.542;2023-02-28T06:22:47;-4.40;99.90
19862;DHT22;10093;48.148;8.542;2023-02-28T06:25:13;-4.30;99.90
19862;DHT22;10093;48.148;8.542;2023-02-28T06:27:38;-4.20;99.90
19862;DHT22;10093;48.148;8.542;2023-02-28T06:30:05;-4.10;99.90
19862;DHT22;10093;48.148;8.542;2023-02-28T06:32:30;-4.10;99.90
19862;DHT22;10093;48.148;8.542;2023-02-28T06:34:56;-4.10;99.90
19862;DHT22;10093;48.148;8.542;2023-02-28T06:37:23;-4.20;99.90
19862;DHT22;10093;48.148;8.542;2023-02-28T06:39:51;-4.20;99.90
19862;DHT22;10093;48.148;8.542;2023-02-28T06:42:17;-4.30;99.90
19862;DHT22;10093;48.148;8.542;2023-02-28T06:44:42;-4.30;99.90
19862;DHT22;10093;48.148;8.542;2023-02-28T06:47:08;-4.30;99.90
19862;DHT22;10093;48.148;8.542;2023-02-28T06:49:35;-4.20;99.90
19862;DHT22;10093;48.148;8.542;2023-02-28T06:52:01;-4.10;99.90
19862;DHT22;10093;48.148;8.542;2023-02-28T06:54:27;-4.10;99.90
19862;DHT22;10093;48.148;8.542;2023-02-28T06:56:53;-4.20;99.90
19862;DHT22;10093;48.148;8.542;2023-02-28T06:59:19;-4.20;99.90
19862;DHT22;10093;48.148;8.542;2023-02-28T07:01:45;-4.10;99.90
19862;DHT22;10093;48.148;8.542;2023-02-28T07:04:11;-4.20;99.90
19862;DHT22;10093;48.148;8.542;2023-02-28T07:06:38;-4.20;99.90
19862;DHT22;10093;48.148;8.542;2023-02-28T07:09:04;-4.10;99.90
19862;DHT22;10093;48.148;8.542;2023-02-28T07:11:30;-4.10;99.90
19862;DHT22;10093;48.148;8.542;2023-02-28T07:13:56;-4.20;99.90
19862;DHT22;10093;48.148;8.542;2023-02-28T07:16:23;-4.10;99.90
19862;DHT22;10093;48.148;8.542;2023-02-28T07:18:51;-4.10;99.90
19862;DHT22;10093;48.148;8.542;2023-02-28T07:21:17;-4.00;99.90
19862;DHT22;10093;48.148;8.542;2023-02-28T07:23:43;-4.00;99.90
19862;DHT22;10093;48.148;8.542;2023-02-28T07:26:15;-4.00;99.90
19862;DHT22;10093;48.148;8.542;2023-02-28T07:28:42;-3.90;99.90
19862;DHT22;10093;48.148;8.542;2023-02-28T07:31:08;-4.00;99.90
19862;DHT22;10093;48.148;8.542;2023-02-28T07:33:34;-4.00;99.90
19862;DHT22;10093;48.148;8.542;2023-02-28T07:36:05;-4.00;99.90
19862;DHT22;10093;48.148;8.542;2023-02-28T07:38:34;-4.00;99.90
19862;DHT22;10093;48.148;8.542;2023-02-28T07:41:01;-3.80;99.90
19862;DHT22;10093;48.148;8.542;2023-02-28T07:43:30;-3.80;99.90
19862;DHT22;10093;48.148;8.542;2023-02-28T07:45:55;-3.60;99.90
19862;DHT22;10093;48.148;8.542;2023-02-28T07:48:21;-3.30;99.90
19862;DHT22;10093;48.148;8.542;2023-02-28T07:50:54;-3.10;99.90
19862;DHT22;10093;48.148;8.542;2023-02-28T07:53:20;-3.10;99.90
19862;DHT22;10093;48.148;8.542;2023-02-28T07:55:46;-3.30;99.90
19862;DHT22;10093;48.148;8.542;2023-02-28T07:58:12;-3.10;99.90
19862;DHT22;10093;48.148;8.542;2023-02-28T08:00:37;-3.20;99.90
19862;DHT22;10093;48.148;8.542;2023-02-28T08:03:03;-3.30;99.90
19862;DHT22;10093;48.148;8.542;2023-02-28T08:05:29;-3.20;99.90
19862;DHT22;10093;48.148;8.542;2023-02-28T08:07:56;-3.20;99.90
19862;DHT22;10093;48.148;8.542;2023-02-28T08:10:22;-3.40;99.90
19862;DHT22;10093;48.148;8.542;2023-02-28T08:12:49;-3.30;99.90
19862;DHT22;10093;48.148;8.542;2023-02-28T08:15:14;-3.20;99.90
19862;DHT22;10093;48.148;8.542;2023-02-28T08:17:40;-3.30;99.90
19862;DHT22;10093;48.148;8.542;2023-02-28T08:20:06;-3.40;99.90
19862;DHT22;10093;48.148;8.542;2023-02-28T08:22:32;-3.30;99.90
19862;DHT22;10093;48.148;8.542;2023-02-28T08:24:58;-3.20;99.90
19862;DHT22;10093;48.148;8.542;2023-02-28T08:27:23;-3.00;99.90
19862;DHT22;10093;48.148;8.542;2023-02-28T08:29:49;-3.00;99.90
19862;DHT22;10093;48.148;8.542;2023-02-28T08:32:15;-2.90;99.90
19862;DHT22;10093;48.148;8.542;2023-02-28T08:34:40;-2.70;99.90
19862;DHT22;10093;48.148;8.542;2023-02-28T08:37:06;-2.40;99.90
19862;DHT22;10093;48.148;8.542;2023-02-28T08:39:34;-2.40;99.90
19862;DHT22;10093;48.148;8.542;2023-02-28T08:42:01;-2.80;99.90
19862;DHT22;10093;48.148;8.542;2023-02-28T08:44:27;-2.60;99.90
19862;DHT22;10093;48.148;8.542;2023-02-28T08:46:53;-2.60;99.90
19862;DHT22;10093;48.148;8.542;2023-02-28T08:49:18;-2.30;99.90
19862;DHT22;10093;48.148;8.542;2023-02-28T08:51:44;-2.10;99.90
19862;DHT22;10093;48.148;8.542;2023-02-28T08:54:10;-2.70;99.90
19862;DHT22;10093;48.148;8.542;2023-02-28T08:56:41;-2.70;99.90
19862;DHT22;10093;48.148;8.542;2023-02-28T08:59:09;-2.40;99.90
19862;DHT22;10093;48.148;8.542;2023-02-28T09:01:34;-2.40;99.90
19862;DHT22;10093;48.148;8.542;2023-02-28T09:04:02;-2.20;99.90
19862;DHT22;10093;48.148;8.542;2023-02-28T09:06:27;-2.10;99.90
19862;DHT22;10093;48.148;8.542;2023-02-28T09:08:56;-2.00;99.90
19862;DHT22;10093;48.148;8.542;2023-02-28T09:11:23;-2.10;99.90
19862;DHT22;10093;48.148;8.542;2023-02-28T09:13:49;-2.30;99.90
19862;DHT22;10093;48.148;8.542;2023-02-28T09:16:15;-2.10;99.90
19862;DHT22;10093;48.148;8.542;2023-02-28T09:18:42;-2.20;99.90
19862;DHT22;10093;48.148;8.542;2023-02-28T09:21:11;-2.40;99.90
19862;DHT22;10093;48.148;8.542;2023-02-28T09:23:40;-2.60;99.90
19862;DHT22;10093;48.148;8.542;2023-02-28T09:26:06;-2.40;99.90
19862;DHT22;10093;48.148;8.542;2023-02-28T09:28:32;-2.10;99.90
19862;DHT22;10093;48.148;8.542;2023-02-28T09:30:58;-1.80;99.90
19862;DHT22;10093;48.148;8.542;2023-02-28T09:33:25;-1.70;99.90
19862;DHT22;10093;48.148;8.542;2023-02-28T09:35:58;-1.20;99.90
19862;DHT22;10093;48.148;8.542;2023-02-28T09:38:24;-1.40;99.90
19862;DHT22;10093;48.148;8.542;2023-02-28T09:40:56;-1.70;99.90
19862;DHT22;10093;48.148;8.542;2023-02-28T09:43:25;-2.10;99.90
19862;DHT22;10093;48.148;8.542;2023-02-28T09:48:56;-1.40;99.90
19862;DHT22;10093;48.148;8.542;2023-02-28T09:51:28;-1.20;99.90
19862;DHT22;10093;48.148;8.542;2023-02-28T09:53:55;-1.20;99.90
19862;DHT22;10093;48.148;8.542;2023-02-28T09:56:25;-0.90;99.90
19862;DHT22;10093;48.148;8.542;2023-02-28T10:06:49;-0.80;99.90
19862;DHT22;10093;48.148;8.542;2023-02-28T10:09:19;-0.60;99.90
19862;DHT22;10093;48.148;8.542;2023-02-28T10:11:50;-1.00;99.90
19862;DHT22;10093;48.148;8.542;2023-02-28T10:14:23;-1.50;99.90
19862;DHT22;10093;48.148;8.542;2023-02-28T10:17:06;-1.00;99.90
19862;DHT22;10093;48.148;8.542;2023-02-28T10:19:47;-0.70;99.90
19862;DHT22;10093;48.148;8.542;2023-02-28T10:22:49;-0.90;99.90
19862;DHT22;10093;48.148;8.542;2023-02-28T10:25:20;-0.50;99.90
19862;DHT22;10093;48.148;8.542;2023-02-28T10:27:46;-0.60;99.90
19862;DHT22;10093;48.148;8.542;2023-02-28T10:30:12;-0.90;99.90
19862;DHT22;10093;48.148;8.542;2023-02-28T10:32:47;-1.60;99.90
19862;DHT22;10093;48.148;8.542;2023-02-28T10:35:21;-1.70;99.90
19862;DHT22;10093;48.148;8.542;2023-02-28T10:37:55;-1.20;99.90
19862;DHT22;10093;48.148;8.542;2023-02-28T10:43:00;-1.00;99.90
19862;DHT22;10093;48.148;8.542;2023-02-28T10:45:28;-0.80;99.90
19862;DHT22;10093;48.148;8.542;2023-02-28T10:50:51;-1.30;99.90
19862;DHT22;10093;48.148;8.542;2023-02-28T11:01:21;-1.00;99.90
19862;DHT22;10093;48.148;8.542;2023-02-28T11:03:48;-0.60;99.90
19862;DHT22;10093;48.148;8.542;2023-02-28T11:08:55;-0.80;99.90
19862;DHT22;10093;48.148;8.542;2023-02-28T11:11:25;-0.50;99.90
19862;DHT22;10093;48.148;8.542;2023-02-28T11:14:03;-0.50;99.90
19862;DHT22;10093;48.148;8.542;2023-02-28T11:16:37;-0.20;99.90
19862;DHT22;10093;48.148;8.542;2023-02-28T11:19:06;-0.30;99.90
19862;DHT22;10093;48.148;8.542;2023-02-28T11:21:52;-0.10;99.90
19862;DHT22;10093;48.148;8.542;2023-02-28T11:24:26;-0.50;99.90
19862;DHT22;10093;48.148;8.542;2023-02-28T11:26:52;-0.20;99.90
19862;DHT22;10093;48.148;8.542;2023-02-28T11:29:30;-0.10;99.90
19862;DHT22;10093;48.148;8.542;2023-02-28T11:34:37;-0.10;99.90
19862;DHT22;10093;48.148;8.542;2023-02-28T11:37:05;-0.20;99.90
19862;DHT22;10093;48.148;8.542;2023-02-28T11:39:32;-0.30;99.90
19862;DHT22;10093;48.148;8.542;2023-02-28T11:42:27;-0.50;99.90
19862;DHT22;10093;48.148;8.542;2023-02-28T11:55:44;0.00;99.90
19862;DHT22;10093;48.148;8.542;2023-02-28T11:58:23;-0.10;99.90
19862;DHT22;10093;48.148;8.542;2023-02-28T12:06:25;0.20;99.90
19862;DHT22;10093;48.148;8.542;2023-02-28T12:15:22;1.00;99.90
19862;DHT22;10093;48.148;8.542;2023-02-28T12:20:33;0.50;99.90
19862;DHT22;10093;48.148;8.542;2023-02-28T12:28:47;0.60;99.90
19862;DHT22;10093;48.148;8.542;2023-02-28T12:31:23;1.20;99.90
19862;DHT22;10093;48.148;8.542;2023-02-28T12:34:10;0.70;99.90
19862;DHT22;10093;48.148;8.542;2023-02-28T12:36:37;0.30;99.90
19862;DHT22;10093;48.148;8.542;2023-02-28T12:39:12;0.70;99.90
19862;DHT22;10093;48.148;8.542;2023-02-28T12:42:16;1.00;99.90
19862;DHT22;10093;48.148;8.542;2023-02-28T12:44:56;0.70;99.90
19862;DHT22;10093;48.148;8.542;2023-02-28T12:47:23;0.00;99.90
19862;DHT22;10093;48.148;8.542;2023-02-28T12:53:03;1.10;99.90
19862;DHT22;10093;48.148;8.542;2023-02-28T12:55:43;1.00;99.90
19862;DHT22;10093;48.148;8.542;2023-02-28T12:58:29;0.60;99.90
19862;DHT22;10093;48.148;8.542;2023-02-28T13:09:31;1.00;99.90
19862;DHT22;10093;48.148;8.542;2023-02-28T13:11:57;1.00;99.90
19862;DHT22;10093;48.148;8.542;2023-02-28T13:14:38;1.20;99.90
19862;DHT22;10093;48.148;8.542;2023-02-28T13:22:44;0.30;99.90
19862;DHT22;10093;48.148;8.542;2023-02-28T13:27:57;-0.10;99.90
19862;DHT22;10093;48.148;8.542;2023-02-28T13:36:28;0.80;99.90
19862;DHT22;10093;48.148;8.542;2023-02-28T13:44:07;0.90;99.90
19862;DHT22;10093;48.148;8.542;2023-02-28T13:46:36;0.70;99.90
19862;DHT22;10093;48.148;8.542;2023-02-28T13:57:29;2.50;99.90
19862;DHT22;10093;48.148;8.542;2023-02-28T14:05:20;4.10;99.90
19862;DHT22;10093;48.148;8.542;2023-02-28T14:07:59;3.10;99.90
19862;DHT22;10093;48.148;8.542;2023-02-28T14:10:42;3.20;99.90
19862;DHT22;10093;48.148;8.542;2023-02-28T14:16:03;3.90;99.90
19862;DHT22;10093;48.148;8.542;2023-02-28T14:18:36;4.00;99.90
19862;DHT22;10093;48.148;8.542;2023-02-28T14:21:11;3.70;99.90
19862;DHT22;10093;48.148;8.542;2023-02-28T14:32:24;3.30;99.90
19862;DHT22;10093;48.148;8.542;2023-02-28T14:37:51;2.10;99.90
19862;DHT22;10093;48.148;8.542;2023-02-28T14:40:29;1.90;99.90
19862;DHT22;10093;48.148;8.542;2023-02-28T14:43:06;2.60;99.90
19862;DHT22;10093;48.148;8.542;2023-02-28T14:45:33;3.20;99.90
19862;DHT22;10093;48.148;8.542;2023-02-28T14:48:01;4.00;99.90
19862;DHT22;10093;48.148;8.542;2023-02-28T14:50:33;4.80;99.90
19862;DHT22;10093;48.148;8.542;2023-02-28T14:52:59;5.50;99.90
19862;DHT22;10093;48.148;8.542;2023-02-28T14:55:34;4.60;99.90
19862;DHT22;10093;48.148;8.542;2023-02-28T14:58:18;3.60;99.90
19862;DHT22;10093;48.148;8.542;2023-02-28T15:00:49;2.70;99.90
19862;DHT22;10093;48.148;8.542;2023-02-28T15:03:38;2.50;99.90
19862;DHT22;10093;48.148;8.542;2023-02-28T15:06:12;2.70;99.90
19862;DHT22;10093;48.148;8.542;2023-02-28T15:08:43;3.00;99.90
19862;DHT22;10093;48.148;8.542;2023-02-28T15:11:13;2.70;99.90
19862;DHT22;10093;48.148;8.542;2023-02-28T15:13:46;3.60;99.90
19862;DHT22;10093;48.148;8.542;2023-02-28T15:16:23;3.70;99.90
19862;DHT22;10093;48.148;8.542;2023-02-28T15:18:57;3.80;99.90
19862;DHT22;10093;48.148;8.542;2023-02-28T15:21:55;4.00;99.90
19862;DHT22;10093;48.148;8.542;2023-02-28T15:24:41;4.30;99.90
19862;DHT22;10093;48.148;8.542;2023-02-28T15:27:20;3.70;99.90
19862;DHT22;10093;48.148;8.542;2023-02-28T15:29:55;3.40;99.90
19862;DHT22;10093;48.148;8.542;2023-02-28T15:32:33;2.60;99.90
19862;DHT22;10093;48.148;8.542;2023-02-28T15:37:46;3.90;99.90
19862;DHT22;10093;48.148;8.542;2023-02-28T15:48:29;2.50;99.90
19862;DHT22;10093;48.148;8.542;2023-02-28T15:51:01;2.80;99.90
19862;DHT22;10093;48.148;8.542;2023-02-28T15:53:33;3.70;99.90
19862;DHT22;10093;48.148;8.542;2023-02-28T15:56:02;3.30;99.90
19862;DHT22;10093;48.148;8.542;2023-02-28T15:58:29;3.40;99.90
19862;DHT22;10093;48.148;8.542;2023-02-28T16:01:23;3.40;99.90
19862;DHT22;10093;48.148;8.542;2023-02-28T16:03:51;3.30;99.90
19862;DHT22;10093;48.148;8.542;2023-02-28T16:06:35;3.10;99.90
19862;DHT22;10093;48.148;8.542;2023-02-28T16:09:02;3.20;99.90
19862;DHT22;10093;48.148;8.542;2023-02-28T16:11:28;2.50;99.90
19862;DHT22;10093;48.148;8.542;2023-02-28T16:13:54;2.20;99.90
19862;DHT22;10093;48.148;8.542;2023-02-28T16:16:23;1.80;99.90
19862;DHT22;10093;48.148;8.542;2023-02-28T16:18:50;2.00;99.90
19862;DHT22;10093;48.148;8.542;2023-02-28T16:21:16;2.00;99.90
19862;DHT22;10093;48.148;8.542;2023-02-28T16:23:41;2.20;99.90
19862;DHT22;10093;48.148;8.542;2023-02-28T16:26:07;2.20;99.90
19862;DHT22;10093;48.148;8.542;2023-02-28T16:28:35;1.80;99.90
19862;DHT22;10093;48.148;8.542;2023-02-28T16:31:03;1.70;99.90
19862;DHT22;10093;48.148;8.542;2023-02-28T16:33:30;1.50;99.90
19862;DHT22;10093;48.148;8.542;2023-02-28T16:35:56;1.30;99.90
19862;DHT22;10093;48.148;8.542;2023-02-28T16:38:21;1.10;99.90
19862;DHT22;10093;48.148;8.542;2023-02-28T16:40:49;1.00;99.90
19862;DHT22;10093;48.148;8.542;2023-02-28T16:43:19;1.00;99.90
19862;DHT22;10093;48.148;8.542;2023-02-28T16:45:46;0.90;99.90
19862;DHT22;10093;48.148;8.542;2023-02-28T16:48:14;0.80;99.90
19862;DHT22;10093;48.148;8.542;2023-02-28T16:50:40;0.80;99.90
19862;DHT22;10093;48.148;8.542;2023-02-28T16:53:06;0.60;99.90
19862;DHT22;10093;48.148;8.542;2023-02-28T16:55:32;0.60;99.90
19862;DHT22;10093;48.148;8.542;2023-02-28T16:57:59;0.60;99.90
19862;DHT22;10093;48.148;8.542;2023-02-28T17:00:27;0.40;99.90
19862;DHT22;10093;48.148;8.542;2023-02-28T17:02:53;0.30;99.90
19862;DHT22;10093;48.148;8.542;2023-02-28T17:05:19;0.30;99.90
19862;DHT22;10093;48.148;8.542;2023-02-28T17:07:46;0.10;99.90
19862;DHT22;10093;48.148;8.542;2023-02-28T17:10:29;0.00;99.90
19862;DHT22;10093;48.148;8.542;2023-02-28T17:12:55;0.00;99.90
19862;DHT22;10093;48.148;8.542;2023-02-28T17:15:20;-0.20;99.90
19862;DHT22;10093;48.148;8.542;2023-02-28T17:17:47;-0.20;99.90
19862;DHT22;10093;48.148;8.542;2023-02-28T17:20:16;-0.40;99.90
19862;DHT22;10093;48.148;8.542;2023-02-28T17:22:42;-0.50;99.90
19862;DHT22;10093;48.148;8.542;2023-02-28T17:25:09;-0.40;99.90
19862;DHT22;10093;48.148;8.542;2023-02-28T17:27:35;-0.60;99.90
19862;DHT22;10093;48.148;8.542;2023-02-28T17:30:02;-0.80;99.90
19862;DHT22;10093;48.148;8.542;2023-02-28T17:32:28;-1.00;99.90
19862;DHT22;10093;48.148;8.542;2023-02-28T17:34:54;-1.10;99.90
19862;DHT22;10093;48.148;8.542;2023-02-28T17:37:19;-1.10;99.90
19862;DHT22;10093;48.148;8.542;2023-02-28T17:39:45;-1.10;99.90
19862;DHT22;10093;48.148;8.542;2023-02-28T17:42:10;-1.10;99.90
19862;DHT22;10093;48.148;8.542;2023-02-28T17:44:36;-1.20;99.90
19862;DHT22;10093;48.148;8.542;2023-02-28T17:47:03;-0.80;99.90
19862;DHT22;10093;48.148;8.542;2023-02-28T17:49:28;-0.60;99.90
19862;DHT22;10093;48.148;8.542;2023-02-28T17:51:54;-0.40;99.90
19862;DHT22;10093;48.148;8.542;2023-02-28T17:54:20;-0.30;99.90
19862;DHT22;10093;48.148;8.542;2023-02-28T17:56:45;-0.20;99.90
19862;DHT22;10093;48.148;8.542;2023-02-28T17:59:12;-0.20;99.90
19862;DHT22;10093;48.148;8.542;2023-02-28T18:01:38;-0.40;99.90
19862;DHT22;10093;48.148;8.542;2023-02-28T18:04:04;-0.60;99.90
19862;DHT22;10093;48.148;8.542;2023-02-28T18:06:38;-0.60;99.90
19862;DHT22;10093;48.148;8.542;2023-02-28T18:09:12;-0.70;99.90
19862;DHT22;10093;48.148;8.542;2023-02-28T18:11:38;-0.80;99.90
19862;DHT22;10093;48.148;8.542;2023-02-28T18:14:07;-0.90;99.90
19862;DHT22;10093;48.148;8.542;2023-02-28T18:16:33;-0.70;99.90
19862;DHT22;10093;48.148;8.542;2023-02-28T18:18:59;-0.60;99.90
19862;DHT22;10093;48.148;8.542;2023-02-28T18:21:24;-0.80;99.90
19862;DHT22;10093;48.148;8.542;2023-02-28T18:23:56;-0.80;99.90
19862;DHT22;10093;48.148;8.542;2023-02-28T18:26:22;-0.70;99.90
19862;DHT22;10093;48.148;8.542;2023-02-28T18:28:48;-0.70;99.90
19862;DHT22;10093;48.148;8.542;2023-02-28T18:31:16;-0.70;99.90
19862;DHT22;10093;48.148;8.542;2023-02-28T18:33:44;-0.70;99.90
19862;DHT22;10093;48.148;8.542;2023-02-28T18:36:12;-0.80;99.90
19862;DHT22;10093;48.148;8.542;2023-02-28T18:38:38;-0.90;99.90